Fjordprinsessen — LJVE — position and weather

sailwx.info

Track history (hours):
 
Tides and Currents Weather Stations Pressure Air Temp Water Temp Dewpoint Dewpoint Depression Visibility Wind Speed Wind Dir Waves Ship Positions

Fjordprinsessen

Last reported at 2015-Mar-27 06:34 UTC. Time now 2015-Mar-27 06:57 UTC.
Position N 66°23' E 012°42'.

Length 30 m; draft 2 m.

Type: High speed craft. MMSI: 259604000.

Date/timePositionNaut miles runAvg speedWind from/ knotsBaromVisibWave heightAir tempDewpointWater temp
2015-Mar-27 06:34N 66°23' E 012°42'1515.4
2015-Mar-27 05:33N 66°30' E 012°08'2 0.3
2015-Mar-26 20:34N 66°28' E 012°08'1313.4
2015-Mar-26 19:34N 66°22' E 012°38'1111.0
2015-Mar-26 18:33N 66°31' E 012°22'9 8.9
2015-Mar-26 17:34N 66°23' E 012°22'1514.3
2015-Mar-26 16:30N 66°21' E 012°60'3 0.3
2015-Mar-26 07:19N 66°18' E 012°58'911.8
2015-Mar-26 06:33N 66°23' E 012°40'1515.1
2015-Mar-26 05:33N 66°30' E 012°06'6 2.0
2015-Mar-26 02:30N 66°35' E 012°13'6 1.0
2015-Mar-25 20:29N 66°30' E 012°06'1516.1
2015-Mar-25 19:34N 66°22' E 012°37'1614.5
2015-Mar-25 18:26N 66°35' E 012°12'1315.2
2015-Mar-25 17:34N 66°22' E 012°22'1511.8
2015-Mar-25 16:19N 66°20' E 012°59'1 0.3
2015-Mar-25 14:08N 66°20' E 013°00'1018.2
2015-Mar-25 13:34N 66°26' E 012°38'1313.5
2015-Mar-25 12:33N 66°30' E 012°06'1514.7
2015-Mar-25 11:33N 66°22' E 012°38'9 2.0
2015-Mar-25 07:06N 66°20' E 012°60'915.8
2015-Mar-25 06:33N 66°23' E 012°39'1515.1
2015-Mar-25 05:33N 66°29' E 012°05'1 0.2
2015-Mar-24 20:33N 66°28' E 012°07'1313.5
2015-Mar-24 19:34N 66°22' E 012°37'1514.3
2015-Mar-24 18:30N 66°34' E 012°14'1213.2
2015-Mar-24 17:33N 66°22' E 012°22'1513.9
2015-Mar-24 16:27N 66°20' E 013°00'19 2.3
2015-Mar-24 08:07N 66°03' E 012°39'1621.4
2015-Mar-24 07:22N 66°17' E 012°57'911.3
2015-Mar-24 06:33N 66°23' E 012°38'6 5.6
2015-Mar-24 05:26N 66°22' E 012°22'0 0.0
2015-Mar-24 04:32N 66°22' E 012°22'0 0.0
2015-Mar-24 03:31N 66°22' E 012°22'0 0.0
2015-Mar-24 02:25N 66°22' E 012°22'0 0.0
2015-Mar-24 01:31N 66°22' E 012°22'0 0.0
2015-Mar-24 00:31N 66°22' E 012°22'0 0.0
2015-Mar-23 23:31N 66°22' E 012°22'0 0.0
2015-Mar-23 22:31N 66°22' E 012°22'0 0.0
2015-Mar-23 21:31N 66°22' E 012°22'0 0.0
2015-Mar-23 20:30N 66°22' E 012°22'1010.4
2015-Mar-23 19:33N 66°31' E 012°13'7 6.6
2015-Mar-23 18:33N 66°25' E 012°19'8 7.6
2015-Mar-23 17:32N 66°22' E 012°37'9 8.3
2015-Mar-23 16:25N 66°21' E 012°60'19 2.3
2015-Mar-23 08:07N 66°03' E 012°39'1520.8
2015-Mar-23 07:23N 66°17' E 012°56'910.9
2015-Mar-23 06:34N 66°23' E 012°40'1515.4
2015-Mar-23 05:33N 66°29' E 012°05'4 0.4
2015-Mar-22 21:33N 66°30' E 012°14'1614.0
2015-Mar-22 20:25N 66°24' E 012°49'3 1.3
2015-Mar-22 18:29N 66°23' E 012°43'8 9.2
2015-Mar-22 17:33N 66°22' E 012°22'5 5.4
2015-Mar-22 16:33N 66°25' E 012°34'11 9.1
2015-Mar-22 15:21N 66°21' E 012°60'1113.4
2015-Mar-22 14:33N 66°24' E 012°34'5 5.0
2015-Mar-22 13:32N 66°22' E 012°22'0 0.0
2015-Mar-22 12:32N 66°22' E 012°22'0 0.0
2015-Mar-22 11:32N 66°22' E 012°22'0 0.0
2015-Mar-22 10:32N 66°22' E 012°22'0 0.0
2015-Mar-22 09:32N 66°22' E 012°22'0 0.0
2015-Mar-22 08:32N 66°22' E 012°22'0 0.0
2015-Mar-22 07:32N 66°22' E 012°22'0 0.0
2015-Mar-22 06:32N 66°22' E 012°22'0 0.0
2015-Mar-22 05:32N 66°22' E 012°22'0 0.0
2015-Mar-22 04:32N 66°22' E 012°22'0 0.0
2015-Mar-22 03:32N 66°22' E 012°22'0 0.0
2015-Mar-22 02:32N 66°22' E 012°22'0 0.0
2015-Mar-22 01:32N 66°22' E 012°22'0 0.0
2015-Mar-22 00:32N 66°22' E 012°22'0 0.0
2015-Mar-21 23:32N 66°22' E 012°22'0 0.0
2015-Mar-21 22:26N 66°22' E 012°22'0 0.0
2015-Mar-21 21:32N 66°22' E 012°22'0 0.0
2015-Mar-21 20:32N 66°22' E 012°22'5 5.6
2015-Mar-21 19:33N 66°23' E 012°36'1512.9
2015-Mar-21 18:25N 66°35' E 012°13'1315.1
2015-Mar-21 17:34N 66°23' E 012°22'1515.1
2015-Mar-21 16:33N 66°21' E 012°60'19 2.3
2015-Mar-21 08:07N 66°03' E 012°39'1522.0
2015-Mar-21 07:26N 66°17' E 012°56'910.8
2015-Mar-21 06:33N 66°22' E 012°37'1514.6
2015-Mar-21 05:33N 66°30' E 012°06'6 4.8
2015-Mar-21 04:15N 66°35' E 012°13'0 0.0
2015-Mar-21 03:26N 66°35' E 012°13'0 0.0
2015-Mar-21 02:20N 66°35' E 012°13'0 0.0
2015-Mar-21 01:27N 66°35' E 012°13'0 0.0
2015-Mar-21 00:32N 66°35' E 012°13'0 0.0
2015-Mar-20 23:14N 66°35' E 012°13'0 0.0
2015-Mar-20 21:22N 66°35' E 012°13'1114.1
2015-Mar-20 20:33N 66°24' E 012°20'1211.6
2015-Mar-20 19:32N 66°24' E 012°49'1717.2
2015-Mar-20 18:31N 66°34' E 012°14'1212.8
2015-Mar-20 17:33N 66°22' E 012°22'1513.2
2015-Mar-20 16:24N 66°20' E 013°00'1923.0
2015-Mar-20 15:33N 66°03' E 012°39'1712.7
2015-Mar-20 14:12N 66°18' E 012°58'813.2
2015-Mar-20 13:33N 66°25' E 012°43'1615.3
2015-Mar-20 12:32N 66°30' E 012°06'1515.3
2015-Mar-20 11:33N 66°22' E 012°37'1511.7
2015-Mar-20 10:16N 66°07' E 012°47'5 2.4
2015-Mar-20 08:06N 66°03' E 012°39'1521.3
2015-Mar-20 07:24N 66°16' E 012°57'911.3
2015-Mar-20 06:33N 66°23' E 012°39'1515.0
2015-Mar-20 05:33N 66°30' E 012°06'6 2.8
2015-Mar-20 03:19N 66°35' E 012°13'0 0.0
2015-Mar-20 02:31N 66°35' E 012°13'0 0.0
2015-Mar-20 01:06N 66°35' E 012°13'0 0.0
2015-Mar-20 00:30N 66°35' E 012°13'0 0.0
2015-Mar-19 23:18N 66°35' E 012°13'0 0.0
2015-Mar-19 22:24N 66°35' E 012°13'3 1.6
2015-Mar-19 20:34N 66°32' E 012°12'1313.0
2015-Mar-19 19:33N 66°25' E 012°38'1312.6
2015-Mar-19 18:30N 66°34' E 012°15'1212.9
2015-Mar-19 17:33N 66°22' E 012°23'1514.2
2015-Mar-19 16:30N 66°20' E 013°00'0 0.0
2015-Mar-19 07:06N 66°20' E 012°60'915.9
2015-Mar-19 06:33N 66°23' E 012°39'1413.8
2015-Mar-19 05:33N 66°30' E 012°10'1 0.1
2015-Mar-18 20:33N 66°31' E 012°07'1514.9
2015-Mar-18 19:34N 66°22' E 012°37'1614.7
2015-Mar-18 18:27N 66°35' E 012°12'1314.9
2015-Mar-18 17:34N 66°22' E 012°22'1513.3
2015-Mar-18 16:25N 66°20' E 012°60'3 1.3
2015-Mar-18 14:16N 66°18' E 012°57'913.0
2015-Mar-18 13:34N 66°25' E 012°43'1515.2
2015-Mar-18 12:33N 66°30' E 012°06'1514.7
2015-Mar-18 11:32N 66°23' E 012°40'8 1.9
2015-Mar-18 07:16N 66°19' E 012°58'811.1
2015-Mar-18 06:33N 66°23' E 012°40'1515.4
2015-Mar-18 05:33N 66°30' E 012°07'1 0.1
2015-Mar-17 20:33N 66°32' E 012°07'1514.9
2015-Mar-17 19:33N 66°23' E 012°37'1614.5
2015-Mar-17 18:29N 66°35' E 012°12'1314.4
2015-Mar-17 17:33N 66°22' E 012°22'1514.6
2015-Mar-17 16:30N 66°20' E 013°00'  
Track history (hours):
 
Tides and Currents Weather Stations Pressure Air Temp Water Temp Dewpoint Dewpoint Depression Visibility Wind Speed Wind Dir Waves Ship Positions

Fjordprinsessen

Last reported at 2015-Mar-27 06:34 UTC. Time now 2015-Mar-27 06:57 UTC.
Position N 66°23' E 012°42'.

Length 30 m; draft 2 m.

Type: High speed craft. MMSI: 259604000.

Date/timePositionNaut miles runAvg speedWind from/ knotsBaromVisibWave heightAir tempDewpointWater temp
2015-Mar-27 06:34N 66°23' E 012°42'1515.4
2015-Mar-27 05:33N 66°30' E 012°08'2 0.3
2015-Mar-26 20:34N 66°28' E 012°08'1313.4
2015-Mar-26 19:34N 66°22' E 012°38'1111.0
2015-Mar-26 18:33N 66°31' E 012°22'9 8.9
2015-Mar-26 17:34N 66°23' E 012°22'1514.3
2015-Mar-26 16:30N 66°21' E 012°60'3 0.3
2015-Mar-26 07:19N 66°18' E 012°58'911.8
2015-Mar-26 06:33N 66°23' E 012°40'1515.1
2015-Mar-26 05:33N 66°30' E 012°06'6 2.0
2015-Mar-26 02:30N 66°35' E 012°13'6 1.0
2015-Mar-25 20:29N 66°30' E 012°06'1516.1
2015-Mar-25 19:34N 66°22' E 012°37'1614.5
2015-Mar-25 18:26N 66°35' E 012°12'1315.2
2015-Mar-25 17:34N 66°22' E 012°22'1511.8
2015-Mar-25 16:19N 66°20' E 012°59'1 0.3
2015-Mar-25 14:08N 66°20' E 013°00'1018.2
2015-Mar-25 13:34N 66°26' E 012°38'1313.5
2015-Mar-25 12:33N 66°30' E 012°06'1514.7
2015-Mar-25 11:33N 66°22' E 012°38'9 2.0
2015-Mar-25 07:06N 66°20' E 012°60'915.8
2015-Mar-25 06:33N 66°23' E 012°39'1515.1
2015-Mar-25 05:33N 66°29' E 012°05'1 0.2
2015-Mar-24 20:33N 66°28' E 012°07'1313.5
2015-Mar-24 19:34N 66°22' E 012°37'1514.3
2015-Mar-24 18:30N 66°34' E 012°14'1213.2
2015-Mar-24 17:33N 66°22' E 012°22'1513.9
2015-Mar-24 16:27N 66°20' E 013°00'19 2.3
2015-Mar-24 08:07N 66°03' E 012°39'1621.4
2015-Mar-24 07:22N 66°17' E 012°57'911.3
2015-Mar-24 06:33N 66°23' E 012°38'6 5.6
2015-Mar-24 05:26N 66°22' E 012°22'0 0.0
2015-Mar-24 04:32N 66°22' E 012°22'0 0.0
2015-Mar-24 03:31N 66°22' E 012°22'0 0.0
2015-Mar-24 02:25N 66°22' E 012°22'0 0.0
2015-Mar-24 01:31N 66°22' E 012°22'0 0.0
2015-Mar-24 00:31N 66°22' E 012°22'0 0.0
2015-Mar-23 23:31N 66°22' E 012°22'0 0.0
2015-Mar-23 22:31N 66°22' E 012°22'0 0.0
2015-Mar-23 21:31N 66°22' E 012°22'0 0.0
2015-Mar-23 20:30N 66°22' E 012°22'1010.4
2015-Mar-23 19:33N 66°31' E 012°13'7 6.6
2015-Mar-23 18:33N 66°25' E 012°19'8 7.6
2015-Mar-23 17:32N 66°22' E 012°37'9 8.3
2015-Mar-23 16:25N 66°21' E 012°60'19 2.3
2015-Mar-23 08:07N 66°03' E 012°39'1520.8
2015-Mar-23 07:23N 66°17' E 012°56'910.9
2015-Mar-23 06:34N 66°23' E 012°40'1515.4
2015-Mar-23 05:33N 66°29' E 012°05'4 0.4
2015-Mar-22 21:33N 66°30' E 012°14'1614.0
2015-Mar-22 20:25N 66°24' E 012°49'3 1.3
2015-Mar-22 18:29N 66°23' E 012°43'8 9.2
2015-Mar-22 17:33N 66°22' E 012°22'5 5.4
2015-Mar-22 16:33N 66°25' E 012°34'11 9.1
2015-Mar-22 15:21N 66°21' E 012°60'1113.4
2015-Mar-22 14:33N 66°24' E 012°34'5 5.0
2015-Mar-22 13:32N 66°22' E 012°22'0 0.0
2015-Mar-22 12:32N 66°22' E 012°22'0 0.0
2015-Mar-22 11:32N 66°22' E 012°22'0 0.0
2015-Mar-22 10:32N 66°22' E 012°22'0 0.0
2015-Mar-22 09:32N 66°22' E 012°22'0 0.0
2015-Mar-22 08:32N 66°22' E 012°22'0 0.0
2015-Mar-22 07:32N 66°22' E 012°22'0 0.0
2015-Mar-22 06:32N 66°22' E 012°22'0 0.0
2015-Mar-22 05:32N 66°22' E 012°22'0 0.0
2015-Mar-22 04:32N 66°22' E 012°22'0 0.0
2015-Mar-22 03:32N 66°22' E 012°22'0 0.0
2015-Mar-22 02:32N 66°22' E 012°22'0 0.0
2015-Mar-22 01:32N 66°22' E 012°22'0 0.0
2015-Mar-22 00:32N 66°22' E 012°22'0 0.0
2015-Mar-21 23:32N 66°22' E 012°22'0 0.0
2015-Mar-21 22:26N 66°22' E 012°22'0 0.0
2015-Mar-21 21:32N 66°22' E 012°22'0 0.0
2015-Mar-21 20:32N 66°22' E 012°22'5 5.6
2015-Mar-21 19:33N 66°23' E 012°36'1512.9
2015-Mar-21 18:25N 66°35' E 012°13'1315.1
2015-Mar-21 17:34N 66°23' E 012°22'1515.1
2015-Mar-21 16:33N 66°21' E 012°60'19 2.3
2015-Mar-21 08:07N 66°03' E 012°39'1522.0
2015-Mar-21 07:26N 66°17' E 012°56'910.8
2015-Mar-21 06:33N 66°22' E 012°37'1514.6
2015-Mar-21 05:33N 66°30' E 012°06'6 4.8
2015-Mar-21 04:15N 66°35' E 012°13'0 0.0
2015-Mar-21 03:26N 66°35' E 012°13'0 0.0
2015-Mar-21 02:20N 66°35' E 012°13'0 0.0
2015-Mar-21 01:27N 66°35' E 012°13'0 0.0
2015-Mar-21 00:32N 66°35' E 012°13'0 0.0
2015-Mar-20 23:14N 66°35' E 012°13'0 0.0
2015-Mar-20 21:22N 66°35' E 012°13'1114.1
2015-Mar-20 20:33N 66°24' E 012°20'1211.6
2015-Mar-20 19:32N 66°24' E 012°49'1717.2
2015-Mar-20 18:31N 66°34' E 012°14'1212.8
2015-Mar-20 17:33N 66°22' E 012°22'1513.2
2015-Mar-20 16:24N 66°20' E 013°00'1923.0
2015-Mar-20 15:33N 66°03' E 012°39'1712.7
2015-Mar-20 14:12N 66°18' E 012°58'813.2
2015-Mar-20 13:33N 66°25' E 012°43'1615.3
2015-Mar-20 12:32N 66°30' E 012°06'1515.3
2015-Mar-20 11:33N 66°22' E 012°37'1511.7
2015-Mar-20 10:16N 66°07' E 012°47'5 2.4
2015-Mar-20 08:06N 66°03' E 012°39'1521.3
2015-Mar-20 07:24N 66°16' E 012°57'911.3
2015-Mar-20 06:33N 66°23' E 012°39'1515.0
2015-Mar-20 05:33N 66°30' E 012°06'6 2.8
2015-Mar-20 03:19N 66°35' E 012°13'0 0.0
2015-Mar-20 02:31N 66°35' E 012°13'0 0.0
2015-Mar-20 01:06N 66°35' E 012°13'0 0.0
2015-Mar-20 00:30N 66°35' E 012°13'0 0.0
2015-Mar-19 23:18N 66°35' E 012°13'0 0.0
2015-Mar-19 22:24N 66°35' E 012°13'3 1.6
2015-Mar-19 20:34N 66°32' E 012°12'1313.0
2015-Mar-19 19:33N 66°25' E 012°38'1312.6
2015-Mar-19 18:30N 66°34' E 012°15'1212.9
2015-Mar-19 17:33N 66°22' E 012°23'1514.2
2015-Mar-19 16:30N 66°20' E 013°00'0 0.0
2015-Mar-19 07:06N 66°20' E 012°60'915.9
2015-Mar-19 06:33N 66°23' E 012°39'1413.8
2015-Mar-19 05:33N 66°30' E 012°10'1 0.1
2015-Mar-18 20:33N 66°31' E 012°07'1514.9
2015-Mar-18 19:34N 66°22' E 012°37'1614.7
2015-Mar-18 18:27N 66°35' E 012°12'1314.9
2015-Mar-18 17:34N 66°22' E 012°22'1513.3
2015-Mar-18 16:25N 66°20' E 012°60'3 1.3
2015-Mar-18 14:16N 66°18' E 012°57'913.0
2015-Mar-18 13:34N 66°25' E 012°43'1515.2
2015-Mar-18 12:33N 66°30' E 012°06'1514.7
2015-Mar-18 11:32N 66°23' E 012°40'8 1.9
2015-Mar-18 07:16N 66°19' E 012°58'811.1
2015-Mar-18 06:33N 66°23' E 012°40'1515.4
2015-Mar-18 05:33N 66°30' E 012°07'1 0.1
2015-Mar-17 20:33N 66°32' E 012°07'1514.9
2015-Mar-17 19:33N 66°23' E 012°37'1614.5
2015-Mar-17 18:29N 66°35' E 012°12'1314.4
2015-Mar-17 17:33N 66°22' E 012°22'1514.6
2015-Mar-17 16:30N 66°20' E 013°00'  

Dump ship's entire track history